Time;durP1;ratioP1;P1;durP2;ratioP2;P2;SDS_P1;SDS_P2;PMS_P1;PMS_P2;Temp;Humidity;BMP_temperature;BMP_pressure;BME280_temperature;BME280_humidity;BME280_pressure;Samples;Min_cycle;Max_cycle;Signal;HPM_P1;HPM_P2
2022/03/01 00:00:43;;;;;;;2.70;1.83;;;-3.30;1.40;;;-2.91;100.00;96577.15;644887;216;31617;-76
2022/03/01 00:03:25;;;;;;;1.70;1.60;;;-3.50;1.40;;;-2.93;100.00;96580.42;647915;216;31621;-76
2022/03/01 00:06:09;;;;;;;3.40;2.53;;;-3.40;1.40;;;-3.09;100.00;96576.91;644131;216;31587;-72
2022/03/01 00:08:56;;;;;;;2.40;2.20;;;-3.70;1.40;;;-3.21;100.00;96580.52;646090;216;31634;-76
2022/03/01 00:11:38;;;;;;;2.75;2.55;;;-3.90;1.40;;;-3.34;100.00;96580.36;646762;216;33339;-76
2022/03/01 00:14:21;;;;;;;1.62;1.48;;;-3.90;1.40;;;-3.40;100.00;96575.77;622095;226;42642;-76
2022/03/01 00:17:02;;;;;;;3.40;1.90;;;-4.00;1.40;;;-3.48;100.00;96579.35;623367;225;32539;-76
2022/03/01 00:19:44;;;;;;;2.47;1.50;;;-4.10;1.40;;;-3.61;100.00;96575.08;647711;216;31532;-75
2022/03/01 00:22:30;;;;;;;4.20;1.60;;;-4.20;1.40;;;-3.67;100.00;96575.48;645199;216;31603;-76
2022/03/01 00:25:11;;;;;;;3.72;2.80;;;-4.30;1.40;;;-3.60;100.00;96576.52;618412;226;31870;-76
2022/03/01 00:27:59;;;;;;;4.00;2.30;;;-4.10;1.40;;;-3.53;100.00;96579.89;648959;212;31556;-76
2022/03/01 00:30:42;;;;;;;4.62;2.12;;;-4.10;1.40;;;-3.69;100.00;96572.47;646470;216;32110;-75
2022/03/01 00:35:54;;;;;;;4.15;2.83;;;-4.40;1.40;;;-3.84;100.00;96568.16;620252;222;31880;-76
2022/03/01 00:38:36;;;;;;;2.80;1.10;;;-4.50;1.40;;;-3.92;100.00;96567.52;646416;212;42344;-76
2022/03/01 00:41:23;;;;;;;1.70;1.52;;;-4.60;1.40;;;-3.90;100.00;96560.84;647227;216;42183;-75
2022/03/01 00:44:07;;;;;;;2.30;1.60;;;-4.60;1.40;;;-3.67;100.00;96555.19;647274;216;31592;-77
2022/03/01 00:46:55;;;;;;;1.70;1.30;;;-4.10;1.40;;;-3.71;100.00;96548.33;646373;216;31559;-75
2022/03/01 00:49:36;;;;;;;4.85;2.33;;;-4.10;1.40;;;-3.77;100.00;96549.67;645327;212;42187;-72
2022/03/01 00:52:20;;;;;;;3.12;2.20;;;-4.20;1.40;;;-3.78;100.00;96546.64;643963;212;42837;-72
2022/03/01 00:55:09;;;;;;;3.47;2.42;;;-4.20;1.40;;;-3.73;100.00;96542.01;650112;216;42165;-76
2022/03/01 00:57:57;;;;;;;2.30;1.35;;;-4.10;1.40;;;-3.81;100.00;96539.85;646937;216;42832;-75
2022/03/01 01:00:41;;;;;;;1.90;1.40;;;-4.10;1.40;;;-3.84;100.00;96533.81;630707;221;31755;-76
2022/03/01 01:03:23;;;;;;;3.62;2.62;;;-4.20;1.40;;;-3.79;100.00;96530.45;617817;222;31910;-76
2022/03/01 01:06:05;;;;;;;2.30;1.10;;;-4.20;1.40;;;-3.58;100.00;96532.44;647668;216;32077;-76
2022/03/01 01:08:48;;;;;;;4.45;2.85;;;-3.70;1.40;;;-3.59;100.00;96529.66;645249;213;31571;-76
2022/03/01 01:11:30;;;;;;;3.10;2.80;;;-3.90;1.40;;;-3.62;100.00;96528.94;641336;218;31529;-75
2022/03/01 01:14:12;;;;;;;3.50;2.10;;;-4.00;1.40;;;-3.71;100.00;96530.02;647621;212;31583;-76
2022/03/01 01:16:57;;;;;;;2.05;1.60;;;-4.20;1.40;;;-3.77;100.00;96526.85;618893;225;32034;-76
2022/03/01 01:19:38;;;;;;;3.70;1.10;;;-4.30;1.40;;;-3.82;100.00;96520.20;649193;212;32090;-77
2022/03/01 01:25:14;;;;;;;3.00;1.60;;;-4.50;1.40;;;-3.91;100.00;96523.39;618480;222;43113;-75
2022/03/01 01:27:56;;;;;;;3.95;2.10;;;-4.30;1.40;;;-3.84;100.00;96517.73;646548;216;31868;-76
2022/03/01 01:30:46;;;;;;;3.60;1.80;;;-4.30;1.40;;;-3.89;100.00;96521.22;644261;212;42728;-76
2022/03/01 01:35:57;;;;;;;5.53;1.85;;;-4.30;1.40;;;-3.78;100.00;96513.08;650230;212;31653;-76
2022/03/01 01:38:39;;;;;;;3.05;2.05;;;-4.10;1.40;;;-3.70;100.00;96511.55;648601;212;42187;-75
2022/03/01 01:41:22;;;;;;;1.60;1.25;;;-4.00;1.40;;;-3.67;100.00;96508.63;647496;212;31592;-76
2022/03/01 01:44:08;;;;;;;2.50;1.23;;;-3.90;1.40;;;-3.47;100.00;96508.92;647974;216;42278;-76
2022/03/01 01:46:51;;;;;;;2.75;1.65;;;-3.60;1.40;;;-3.34;100.00;96507.99;646857;212;31591;-75
2022/03/01 01:49:38;;;;;;;5.30;1.77;;;-3.40;1.40;;;-3.26;100.00;96506.20;649561;216;42227;-73
2022/03/01 01:52:20;;;;;;;2.00;1.80;;;-3.40;1.40;;;-3.23;100.00;96508.00;645665;216;42168;-73
2022/03/01 01:55:08;;;;;;;2.90;2.08;;;-3.40;1.40;;;-3.26;100.00;96507.47;635816;221;42537;-76
2022/03/01 01:57:56;;;;;;;2.45;2.00;;;-3.50;1.40;;;-3.27;100.00;96502.44;651114;216;42434;-74
2022/03/01 02:00:43;;;;;;;3.03;1.95;;;-3.50;1.40;;;-3.31;100.00;96500.28;646907;216;42340;-76
2022/03/01 02:03:31;;;;;;;4.60;2.47;;;-3.50;1.40;;;-3.23;100.00;96494.30;648877;216;31566;-74
2022/03/01 02:06:19;;;;;;;3.20;2.60;;;-3.40;1.40;;;-3.21;100.00;96491.16;646899;212;32038;-76
2022/03/01 02:09:13;;;;;;;3.37;1.80;;;-3.40;1.40;;;-3.35;100.00;96497.66;649157;212;42278;-76
2022/03/01 02:11:57;;;;;;;4.53;2.22;;;-3.60;1.40;;;-3.37;100.00;96489.05;648212;216;42386;-75
2022/03/01 02:14:45;;;;;;;1.80;1.42;;;-3.60;1.40;;;-3.40;100.00;96487.31;649411;216;31650;-76
2022/03/01 02:17:30;;;;;;;3.45;2.30;;;-3.60;1.40;;;-3.36;100.00;96489.60;648262;216;31547;-77
2022/03/01 02:20:17;;;;;;;1.33;1.23;;;-3.50;1.40;;;-3.32;100.00;96485.14;649368;212;31504;-76
2022/03/01 02:23:01;;;;;;;2.00;1.83;;;-3.50;1.40;;;-3.43;100.00;96475.40;645560;216;31575;-72
2022/03/01 02:25:42;;;;;;;1.92;1.40;;;-3.70;1.40;;;-3.46;100.00;96475.48;621054;226;32012;-72
2022/03/01 02:28:30;;;;;;;1.23;1.00;;;-3.60;1.40;;;-3.51;100.00;96475.32;647099;216;43112;-77
2022/03/01 02:31:18;;;;;;;1.90;1.80;;;-3.70;1.40;;;-3.59;100.00;96477.43;648056;216;31556;-73
2022/03/01 02:35:51;;;;;;;2.35;1.90;;;-3.80;1.40;;;-3.73;100.00;96470.20;645563;212;31619;-72
2022/03/01 02:38:33;;;;;;;2.33;1.83;;;-4.00;1.40;;;-3.87;100.00;96466.54;648193;212;32172;-74
2022/03/01 02:41:14;;;;;;;2.40;1.80;;;-4.30;1.40;;;-3.94;100.00;96472.96;647138;212;42757;-74
2022/03/01 02:43:58;;;;;;;2.12;1.50;;;-4.50;1.40;;;-4.09;100.00;96475.47;645515;216;31744;-76
2022/03/01 02:46:42;;;;;;;6.10;1.83;;;-4.80;1.40;;;-4.12;100.00;96472.59;647601;216;31660;-75
2022/03/01 02:49:23;;;;;;;2.90;1.90;;;-4.70;1.40;;;-4.19;100.00;96481.61;647870;216;31667;-74
2022/03/01 02:52:07;;;;;;;2.20;2.10;;;-4.90;1.40;;;-4.17;100.00;96477.79;649732;216;42734;-71
2022/03/01 02:54:49;;;;;;;1.70;1.60;;;-4.90;1.40;;;-4.15;100.00;96472.31;646857;212;31714;-72
2022/03/01 02:57:31;;;;;;;2.90;1.05;;;-4.70;1.40;;;-4.09;100.00;96474.52;649174;212;32009;-72
2022/03/01 03:00:19;;;;;;;4.20;2.47;;;-4.70;1.40;;;-4.19;100.00;96469.98;650992;216;31583;-76
2022/03/01 03:03:03;;;;;;;1.95;1.58;;;-4.80;1.40;;;-4.39;100.00;96470.14;648677;212;31660;-76
2022/03/01 03:05:47;;;;;;;2.15;1.75;;;-5.00;1.40;;;-4.47;100.00;96468.06;649143;212;31573;-75
2022/03/01 03:08:36;;;;;;;4.47;1.55;;;-5.10;1.40;;;-4.67;100.00;96466.77;648714;216;31820;-76
2022/03/01 03:11:23;;;;;;;2.70;1.77;;;-5.20;1.40;;;-4.82;100.00;96472.70;633960;221;31702;-75
2022/03/01 03:14:05;;;;;;;3.00;1.30;;;-5.40;1.40;;;-4.98;100.00;96467.25;644505;212;31628;-72
2022/03/01 03:16:47;;;;;;;4.20;1.80;;;-5.50;1.40;;;-5.05;100.00;96470.98;647728;212;31552;-74
2022/03/01 03:19:28;;;;;;;2.85;2.30;;;-5.60;1.40;;;-5.08;100.00;96465.22;652126;216;31649;-74
2022/03/01 03:22:16;;;;;;;1.65;1.25;;;-5.80;1.40;;;-5.18;100.00;96468.23;646380;216;31607;-76
2022/03/01 03:25:00;;;;;;;2.80;1.80;;;-5.80;1.40;;;-5.13;100.00;96465.47;648730;216;31612;-72
2022/03/01 03:27:48;;;;;;;1.25;1.15;;;-5.70;1.40;;;-5.14;100.00;96460.67;650618;216;31622;-75
2022/03/01 03:30:35;;;;;;;1.80;1.70;;;-5.70;1.40;;;-5.18;100.00;96458.88;644403;216;31562;-72
2022/03/01 03:35:57;;;;;;;3.55;1.02;;;-5.60;1.40;;;-4.99;100.00;96445.12;650595;216;31603;-76
2022/03/01 03:38:39;;;;;;;1.70;1.60;;;-5.50;1.40;;;-5.07;100.00;96442.08;645571;212;31554;-75
2022/03/01 03:41:20;;;;;;;2.10;1.23;;;-5.50;1.40;;;-5.03;100.00;96437.22;648932;216;31564;-76
2022/03/01 03:44:08;;;;;;;1.70;1.60;;;-5.50;1.40;;;-5.00;100.00;96439.72;645751;216;31549;-72
2022/03/01 03:46:56;;;;;;;2.90;1.40;;;-5.50;1.40;;;-5.21;100.00;96437.67;647080;216;42215;-77
2022/03/01 03:49:38;;;;;;;2.15;1.55;;;-5.80;1.40;;;-5.30;100.00;96438.62;648800;212;31525;-76
2022/03/01 03:52:25;;;;;;;3.10;1.52;;;-5.80;1.40;;;-5.25;100.00;96440.41;617941;223;31968;-73
2022/03/01 03:55:08;;;;;;;5.30;2.30;;;-5.70;1.40;;;-5.40;100.00;96440.34;621332;222;31936;-72
2022/03/01 03:57:52;;;;;;;4.43;1.87;;;-5.90;1.40;;;-5.60;100.00;96438.12;650490;216;31575;-75
2022/03/01 04:00:40;;;;;;;1.50;1.10;;;-6.10;1.40;;;-5.66;100.00;96427.88;648697;212;32188;-74
2022/03/01 04:03:23;;;;;;;3.00;1.80;;;-6.20;1.40;;;-5.60;100.00;96426.86;644818;212;32019;-74
2022/03/01 04:06:06;;;;;;;1.30;1.17;;;-6.10;1.40;;;-5.57;100.00;96428.80;645686;216;31536;-76
2022/03/01 04:08:47;;;;;;;1.75;1.33;;;-5.90;1.40;;;-5.50;100.00;96426.45;650879;216;32175;-76
2022/03/01 04:11:31;;;;;;;1.40;1.10;;;-5.80;1.40;;;-5.48;100.00;96431.61;649268;212;31516;-72
2022/03/01 04:16:55;;;;;;;1.92;1.77;;;-5.70;1.40;;;-5.26;100.00;96420.39;647538;212;31829;-73
2022/03/01 04:19:39;;;;;;;0.98;0.98;;;-5.40;1.40;;;-5.19;100.00;96421.11;648229;212;31591;-76
2022/03/01 04:22:26;;;;;;;1.37;1.27;;;-5.30;1.40;;;-5.20;100.00;96421.22;644617;216;31655;-75
2022/03/01 04:25:14;;;;;;;1.65;1.55;;;-5.50;1.40;;;-5.24;100.00;96422.19;649777;216;32057;-77
2022/03/01 04:28:02;;;;;;;2.40;2.00;;;-5.60;1.40;;;-5.29;100.00;96426.41;646974;213;31546;-74
2022/03/01 04:30:43;;;;;;;1.95;1.70;;;-5.70;1.40;;;-5.30;100.00;96435.05;647806;216;31545;-72
2022/03/01 04:35:59;;;;;;;2.55;1.55;;;-5.70;1.40;;;-5.55;100.00;96437.28;619637;226;32398;-76
2022/03/01 04:38:40;;;;;;;2.00;1.10;;;-5.90;1.40;;;-5.64;100.00;96434.66;644759;216;31632;-74
2022/03/01 04:41:21;;;;;;;2.80;1.70;;;-6.00;1.40;;;-5.85;100.00;96434.54;647278;216;32133;-74
2022/03/01 04:44:05;;;;;;;2.00;1.90;;;-6.20;1.40;;;-6.01;100.00;96431.23;645146;216;32076;-74
2022/03/01 04:46:45;;;;;;;3.20;1.37;;;-6.40;1.40;;;-5.93;100.00;96427.96;647371;216;31816;-74
2022/03/01 04:49:27;;;;;;;2.67;1.52;;;-6.30;1.40;;;-5.90;100.00;96426.55;649209;216;31510;-74
2022/03/01 04:52:08;;;;;;;1.70;1.10;;;-6.30;1.40;;;-5.97;100.00;96428.53;647165;216;31541;-74
2022/03/01 04:54:57;;;;;;;3.28;1.25;;;-6.40;1.40;;;-6.10;100.00;96430.71;644505;216;42292;-76
2022/03/01 05:00:21;;;;;;;1.75;1.25;;;-6.60;1.40;;;-6.16;100.00;96428.75;645679;212;31587;-73
2022/03/01 05:03:08;;;;;;;1.90;1.80;;;-6.70;1.40;;;-6.22;100.00;96427.89;647422;212;31589;-76
2022/03/01 05:06:02;;;;;;;4.90;1.98;;;-6.70;1.40;;;-6.22;100.00;96432.64;650448;216;31551;-71
2022/03/01 05:08:44;;;;;;;2.15;1.95;;;-6.70;1.40;;;-6.25;100.00;96433.89;647117;213;31756;-73
2022/03/01 05:11:33;;;;;;;2.50;1.40;;;-6.60;1.40;;;-6.20;100.00;96438.43;651014;216;32124;-76
2022/03/01 05:14:20;;;;;;;2.10;1.20;;;-6.70;1.40;;;-6.21;100.00;96437.51;647021;212;31548;-74
2022/03/01 05:17:04;;;;;;;4.45;1.62;;;-6.70;1.40;;;-6.29;100.00;96441.59;647401;216;32832;-72
2022/03/01 05:19:52;;;;;;;1.20;1.10;;;-6.70;1.40;;;-6.38;100.00;96448.46;646323;216;31873;-76
2022/03/01 05:22:40;;;;;;;1.60;1.30;;;-6.70;1.40;;;-6.28;100.00;96452.33;647679;216;31992;-72
2022/03/01 05:25:22;;;;;;;1.00;0.90;;;-6.70;1.40;;;-6.23;100.00;96457.50;646901;216;31568;-71
2022/03/01 05:28:03;;;;;;;0.80;0.80;;;-6.60;1.40;;;-6.11;100.00;96452.13;648210;212;42701;-74
2022/03/01 05:30:45;;;;;;;1.70;1.60;;;-6.60;1.40;;;-6.40;100.00;96457.73;649884;216;31816;-73
2022/03/01 05:35:59;;;;;;;2.60;0.90;;;-7.00;1.40;;;-6.60;100.00;96462.00;645709;216;31583;-76
2022/03/01 05:38:42;;;;;;;2.05;1.65;;;-7.10;1.40;;;-6.64;100.00;96478.42;618352;226;31925;-76
2022/03/01 05:41:24;;;;;;;2.10;0.70;;;-7.10;1.40;;;-6.55;100.00;96481.48;647129;212;31859;-76
2022/03/01 05:44:08;;;;;;;1.90;1.08;;;-6.90;1.40;;;-6.41;100.00;96486.59;618517;225;31877;-73
2022/03/01 05:47:15;;;;;;;0.82;0.68;;;-6.80;1.40;;;-6.29;100.00;96482.03;648136;216;31551;-77
2022/03/01 05:52:31;;;;;;;2.72;1.08;;;-6.90;1.40;;;-6.56;100.00;96483.11;648986;216;31605;-76
2022/03/01 05:55:14;;;;;;;1.20;0.65;;;-6.90;1.40;;;-6.57;100.00;96484.50;648512;212;42743;-76
2022/03/01 05:57:57;;;;;;;1.10;0.90;;;-6.90;1.40;;;-6.46;100.00;96487.84;647043;212;31510;-75
2022/03/01 06:00:37;;;;;;;2.40;1.67;;;-6.80;1.40;;;-6.40;100.00;96491.12;648174;212;32199;-76
2022/03/01 06:03:19;;;;;;;1.80;0.90;;;-6.70;1.40;;;-6.41;100.00;96490.55;649375;212;31549;-76
2022/03/01 06:06:07;;;;;;;2.35;1.02;;;-6.70;1.40;;;-6.37;100.00;96488.45;645862;216;31605;-72
2022/03/01 06:08:51;;;;;;;3.20;1.40;;;-6.70;1.40;;;-6.39;100.00;96488.50;647094;216;32380;-72
2022/03/01 06:14:08;;;;;;;3.50;2.00;;;-6.60;1.40;;;-6.27;100.00;96488.91;644582;212;31554;-74
2022/03/01 06:16:50;;;;;;;1.40;1.20;;;-6.60;1.40;;;-6.22;100.00;96492.00;646452;216;31572;-74
2022/03/01 06:19:35;;;;;;;2.28;1.05;;;-6.60;1.40;;;-6.01;100.00;96493.95;646165;212;31646;-75
2022/03/01 06:22:17;;;;;;;0.80;0.80;;;-6.40;1.40;;;-6.01;100.00;96494.95;647814;216;31576;-75
2022/03/01 06:25:05;;;;;;;14.18;1.75;;;-6.40;1.40;;;-5.92;100.00;96496.01;646466;212;31537;-76
2022/03/01 06:27:53;;;;;;;2.70;1.00;;;-6.50;1.40;;;-5.93;100.00;96497.82;642065;216;42711;-75
2022/03/01 06:30:34;;;;;;;2.15;0.70;;;-6.40;1.40;;;-5.97;100.00;96500.40;646136;214;31578;-74
2022/03/01 06:35:57;;;;;;;3.63;2.20;;;-6.40;1.40;;;-5.82;100.00;96500.96;649030;216;31690;-76
2022/03/01 06:38:39;;;;;;;4.32;1.85;;;-6.40;1.40;;;-5.67;100.00;96504.89;646666;216;31554;-76
2022/03/01 06:41:20;;;;;;;1.40;1.30;;;-6.30;1.40;;;-5.74;100.00;96503.23;648139;212;31525;-76
2022/03/01 06:44:02;;;;;;;2.30;1.30;;;-6.30;1.40;;;-5.64;100.00;96505.41;645621;216;31584;-76
2022/03/01 06:46:44;;;;;;;3.28;1.85;;;-6.20;1.40;;;-5.43;100.00;96505.38;649780;216;31583;-77
2022/03/01 06:49:25;;;;;;;3.10;1.10;;;-6.00;1.40;;;-5.21;100.00;96509.42;650021;212;31592;-76
2022/03/01 06:52:07;;;;;;;1.10;1.00;;;-5.90;1.40;;;-5.11;100.00;96517.77;648581;212;31746;-76
2022/03/01 06:54:49;;;;;;;1.85;1.60;;;-5.70;1.40;;;-5.00;100.00;96520.03;647520;212;31522;-76
2022/03/01 06:57:31;;;;;;;4.00;2.30;;;-5.50;1.40;;;-4.79;100.00;96517.67;648750;216;31640;-76
2022/03/01 07:00:23;;;;;;;2.62;1.30;;;-5.40;1.40;;;-4.72;100.00;96524.27;646824;212;32224;-72
2022/03/01 07:03:10;;;;;;;2.30;2.10;;;-5.30;1.40;;;-4.60;100.00;96520.28;647087;212;31569;-76
2022/03/01 07:05:53;;;;;;;2.80;1.98;;;-5.20;1.40;;;-4.43;100.00;96517.77;649091;212;31695;-77
2022/03/01 07:08:37;;;;;;;1.10;0.80;;;-5.10;1.40;;;-4.24;100.00;96516.13;637040;216;33004;-74
2022/03/01 07:11:22;;;;;;;2.50;2.30;;;-4.80;1.40;;;-3.99;100.00;96519.34;650610;216;42351;-76
2022/03/01 07:14:03;;;;;;;2.40;2.20;;;-4.50;1.40;;;-3.70;100.00;96517.47;647434;212;33345;-77
2022/03/01 07:16:45;;;;;;;2.20;2.10;;;-4.10;1.40;;;-3.50;100.00;96515.77;647817;216;31571;-76
2022/03/01 07:19:26;;;;;;;2.25;2.05;;;-3.70;1.40;;;-3.39;100.00;96519.54;649162;212;31618;-77
2022/03/01 07:22:10;;;;;;;1.70;1.15;;;-3.60;1.40;;;-3.31;100.00;96521.81;618702;226;42545;-75
2022/03/01 07:24:52;;;;;;;1.75;1.65;;;-3.40;1.40;;;-3.22;100.00;96524.30;645285;212;31540;-75
2022/03/01 07:27:35;;;;;;;1.75;1.65;;;-3.30;1.40;;;-3.02;100.00;96520.85;618696;226;31866;-77
2022/03/01 07:30:27;;;;;;;2.37;2.05;;;-3.20;1.40;;;-2.90;100.00;96526.77;646674;216;42204;-72
2022/03/01 07:35:50;;;;;;;1.35;1.15;;;-2.90;1.40;;;-2.52;100.00;96519.80;648852;212;31683;-77
2022/03/01 07:38:38;;;;;;;3.90;2.62;;;-2.80;1.40;;;-2.52;100.00;96514.77;646560;216;31537;-75
2022/03/01 07:41:26;;;;;;;2.92;2.60;;;-2.70;1.40;;;-2.56;99.58;96512.78;647169;216;31539;-77
2022/03/01 07:44:16;;;;;;;4.43;2.28;;;-2.70;1.40;;;-2.42;98.55;96509.26;647020;216;32823;-72
2022/03/01 07:46:58;;;;;;;1.85;1.50;;;-2.70;1.40;;;-2.43;97.46;96505.95;647294;212;32153;-75
2022/03/01 07:49:41;;;;;;;2.37;2.28;;;-2.70;1.40;;;-2.39;97.25;96505.00;648399;212;32194;-75
2022/03/01 07:52:21;;;;;;;2.50;2.28;;;-2.50;1.40;;;-2.25;97.61;96505.86;645605;212;32120;-75
2022/03/01 07:55:08;;;;;;;4.87;2.78;;;-2.50;1.40;;;-2.07;97.34;96501.79;646636;216;31932;-74
2022/03/01 07:57:49;;;;;;;1.83;1.73;;;-2.40;1.40;;;-2.07;94.61;96497.87;646183;216;42207;-74
2022/03/01 08:00:37;;;;;;;2.50;2.10;;;-2.20;1.40;;;-1.85;94.74;96498.94;617963;226;31914;-78
2022/03/01 08:03:19;;;;;;;3.70;2.72;;;-2.10;1.40;;;-1.73;93.15;96495.59;646211;212;31780;-77
2022/03/01 08:06:00;;;;;;;4.37;2.58;;;-2.00;1.40;;;-1.62;91.88;96494.26;643141;212;31587;-77
2022/03/01 08:08:48;;;;;;;2.40;1.77;;;-1.90;1.40;;;-1.51;90.81;96490.62;648525;216;31673;-76
2022/03/01 08:11:30;;;;;;;1.67;1.58;;;-1.70;1.40;;;-1.26;89.73;96492.50;650252;216;42148;-74
2022/03/01 08:14:15;;;;;;;3.58;2.22;;;-1.50;1.40;;;-1.06;89.12;96492.88;648421;216;31632;-76
2022/03/01 08:16:59;;;;;;;2.83;1.98;;;-1.30;1.40;;;-0.86;86.60;96488.47;647966;212;31767;-75
2022/03/01 08:19:43;;;;;;;1.85;1.75;;;-1.10;1.40;;;-0.62;86.52;96482.66;646884;216;31987;-77
2022/03/01 08:22:24;;;;;;;2.28;2.00;;;-0.90;1.40;;;-0.36;85.66;96486.73;644603;212;32187;-77
2022/03/01 08:25:07;;;;;;;3.80;1.98;;;-0.70;1.40;;;-0.16;84.26;96485.20;620504;225;32069;-77
2022/03/01 08:27:49;;;;;;;3.67;1.80;;;-0.50;1.40;;;0.00;83.88;96491.41;650425;216;31550;-77
2022/03/01 08:30:37;;;;;;;3.42;2.40;;;-0.30;1.40;;;0.02;82.63;96491.30;646566;216;31588;-76
2022/03/01 08:35:57;;;;;;;4.93;2.00;;;-0.20;1.40;;;0.37;82.07;96485.89;646500;216;31655;-76
2022/03/01 08:38:39;;;;;;;2.20;2.00;;;0.00;1.40;;;0.33;79.08;96486.23;647840;212;33149;-77
2022/03/01 08:41:26;;;;;;;4.40;1.67;;;-0.10;1.40;;;0.37;78.21;96480.23;646703;212;32160;-73
2022/03/01 08:44:08;;;;;;;2.90;2.10;;;0.00;1.40;;;0.32;77.01;96476.39;619777;225;32030;-75
2022/03/01 08:46:52;;;;;;;2.60;2.20;;;0.10;1.40;;;0.68;77.84;96476.69;647134;216;31598;-76
2022/03/01 08:49:36;;;;;;;2.50;2.30;;;0.40;1.40;;;0.92;75.47;96473.38;646205;216;31591;-73
2022/03/01 08:52:23;;;;;;;2.08;1.85;;;0.60;1.40;;;0.89;73.98;96474.20;619761;226;31906;-77
2022/03/01 08:55:12;;;;;;;2.50;1.87;;;0.60;1.40;;;1.16;73.19;96471.95;646151;216;31603;-75
2022/03/01 08:57:53;;;;;;;3.15;2.20;;;0.90;1.40;;;1.58;72.81;96471.01;646865;216;31599;-75
2022/03/01 09:00:37;;;;;;;3.60;2.70;;;1.20;1.40;;;1.57;70.29;96466.44;648374;212;31575;-77
2022/03/01 09:03:19;;;;;;;3.70;2.58;;;1.20;1.40;;;1.49;68.19;96462.05;620230;226;42585;-76
2022/03/01 09:06:02;;;;;;;2.10;2.00;;;1.30;1.40;;;2.30;70.17;96459.83;645123;212;31794;-76
2022/03/01 09:08:44;;;;;;;2.92;2.40;;;2.10;1.40;;;2.72;66.64;96457.86;619360;222;31911;-76
2022/03/01 09:11:32;;;;;;;4.95;2.62;;;2.50;1.40;;;3.76;61.34;96452.25;645220;216;32044;-76
2022/03/01 09:14:20;;;;;;;3.33;2.17;;;5.00;1.40;;;6.95;58.54;96443.45;647849;216;31566;-77
2022/03/01 09:17:01;;;;;;;3.87;2.40;;;9.30;1.40;;;9.06;47.45;96441.94;620276;222;32057;-77
2022/03/01 09:19:43;;;;;;;3.55;2.53;;;9.40;1.40;;;10.84;49.77;96433.96;648706;216;31556;-76
2022/03/01 09:22:26;;;;;;;2.90;2.60;;;11.00;1.40;;;9.23;44.68;96449.33;645803;212;31563;-77
2022/03/01 09:25:10;;;;;;;5.30;2.90;;;9.80;1.40;;;12.74;45.28;96438.02;647311;216;31710;-77
2022/03/01 09:27:53;;;;;;;4.40;3.10;;;11.70;1.40;;;10.03;39.64;96445.06;620131;226;32443;-77
2022/03/01 09:30:38;;;;;;;3.72;3.22;;;8.60;1.40;;;9.66;43.12;96439.20;646737;216;31660;-76
2022/03/01 09:35:51;;;;;;;4.22;3.10;;;9.30;1.40;;;9.40;39.45;96435.48;617769;226;31946;-76
2022/03/01 09:38:39;;;;;;;3.83;2.90;;;9.20;1.40;;;9.28;39.92;96422.11;647177;216;31578;-74
2022/03/01 09:41:20;;;;;;;4.20;2.97;;;8.70;1.40;;;10.54;42.01;96412.56;646378;216;31561;-74
2022/03/01 09:44:02;;;;;;;3.50;3.20;;;10.30;1.40;;;9.02;37.77;96415.81;618529;225;31880;-74
2022/03/01 09:46:47;;;;;;;3.90;3.10;;;7.60;1.40;;;11.65;41.71;96404.92;646655;216;31588;-77
2022/03/01 09:49:35;;;;;;;4.30;3.17;;;11.50;1.40;;;16.65;36.76;96399.95;647162;216;32147;-74
2022/03/01 09:52:19;;;;;;;4.45;3.20;;;13.10;1.40;;;15.49;34.75;96394.29;647460;215;31601;-76
2022/03/01 09:55:03;;;;;;;4.60;3.50;;;13.20;1.40;;;13.72;31.32;96400.14;617887;222;32119;-74
2022/03/01 10:00:25;;;;;;;3.47;2.85;;;8.10;1.40;;;9.55;37.63;96412.97;647430;216;31820;-75
2022/03/01 10:03:16;;;;;;;4.05;3.65;;;9.20;1.40;;;14.92;34.55;96392.64;647059;212;42158;-74
2022/03/01 10:06:08;;;;;;;4.78;3.15;;;13.20;1.40;;;16.15;33.64;96390.72;645926;216;31973;-74
2022/03/01 10:08:55;;;;;;;4.25;3.20;;;14.10;1.40;;;17.36;31.07;96389.86;646826;216;31801;-76
2022/03/01 10:11:40;;;;;;;5.95;3.65;;;13.80;1.40;;;19.29;29.62;96387.23;647479;212;31585;-77
2022/03/01 10:14:28;;;;;;;3.20;2.90;;;13.90;1.40;;;17.89;34.42;96385.66;647597;216;31637;-74
2022/03/01 10:17:13;;;;;;;4.10;3.20;;;14.20;1.40;;;20.18;31.11;96375.30;646550;216;43483;-75
2022/03/01 10:20:16;;;;;;;5.50;3.15;;;15.00;1.40;;;13.47;29.84;96398.45;646419;212;31611;-76
2022/03/01 10:23:04;;;;;;;5.05;3.30;;;12.20;1.40;;;15.43;29.12;96385.41;619335;226;31859;-74
2022/03/01 10:25:45;;;;;;;3.60;3.20;;;12.90;1.40;;;18.85;30.08;96367.35;645084;216;31588;-74
2022/03/01 10:28:33;;;;;;;5.85;3.47;;;14.50;1.40;;;20.96;28.71;96356.29;619681;222;31933;-76
2022/03/01 10:31:17;;;;;;;3.37;3.08;;;15.30;1.40;;;15.90;29.20;96369.06;647240;216;31745;-75
2022/03/01 10:35:57;;;;;;;2.95;2.65;;;15.20;1.40;;;17.86;29.29;96368.28;646011;216;38175;-74
2022/03/01 10:38:41;;;;;;;4.00;3.20;;;14.00;1.40;;;19.33;29.71;96358.98;645387;216;31625;-74
2022/03/01 10:41:27;;;;;;;4.40;3.10;;;14.50;1.40;;;15.05;27.48;96360.42;647251;216;32241;-76
2022/03/01 10:44:13;;;;;;;3.03;2.53;;;11.80;1.40;;;17.35;27.77;96354.56;647280;216;31609;-74
2022/03/01 10:46:57;;;;;;;4.32;2.78;;;13.60;1.40;;;15.73;28.96;96348.96;619355;226;31986;-76
2022/03/01 10:49:41;;;;;;;3.42;2.85;;;12.30;1.40;;;17.08;30.42;96339.84;646184;216;31657;-74
2022/03/01 10:52:24;;;;;;;4.05;3.40;;;14.20;1.40;;;17.90;29.01;96341.69;645876;216;31547;-74
2022/03/01 10:55:22;;;;;;;3.10;2.80;;;14.40;1.40;;;19.90;27.50;96322.77;641833;217;34549;-75
2022/03/01 10:58:06;;;;;;;4.45;3.00;;;15.70;1.40;;;21.54;24.72;96314.66;645926;216;32699;-75
2022/03/01 11:00:50;;;;;;;3.25;2.95;;;15.40;1.40;;;14.97;27.42;96335.12;646236;212;31639;-76
2022/03/01 11:03:32;;;;;;;3.00;2.70;;;12.70;1.40;;;17.58;25.87;96325.17;645953;212;31611;-75
2022/03/01 11:06:19;;;;;;;3.85;2.60;;;13.80;1.40;;;16.41;26.68;96318.66;618741;225;31893;-74
2022/03/01 11:09:12;;;;;;;3.75;3.08;;;12.00;1.40;;;15.39;29.52;96315.30;646774;216;31586;-75
2022/03/01 11:11:56;;;;;;;3.55;2.47;;;13.00;1.40;;;20.58;24.81;96296.62;647109;216;31907;-75
2022/03/01 11:14:48;;;;;;;3.37;2.50;;;15.60;1.40;;;20.39;25.34;96294.78;647322;212;31572;-75
2022/03/01 11:18:03;;;;;;;3.12;2.67;;;15.40;1.40;;;16.88;27.90;96302.36;646860;216;32146;-75
2022/03/01 11:20:51;;;;;;;4.37;2.75;;;15.00;1.40;;;22.79;22.83;96290.81;645986;212;31701;-75
2022/03/01 11:23:34;;;;;;;4.47;3.20;;;16.10;99.90;;;19.37;23.98;96294.20;646711;216;31579;-75
2022/03/01 11:26:22;;;;;;;4.25;3.50;;;14.70;1.40;;;15.95;26.21;96295.53;645925;216;31653;-74
2022/03/01 11:29:10;;;;;;;3.28;2.80;;;12.90;99.90;;;18.50;27.00;96285.58;643421;215;31966;-75
2022/03/01 11:31:57;;;;;;;3.90;3.00;;;14.80;99.90;;;19.20;23.07;96277.19;647549;212;31701;-76
2022/03/01 11:35:55;;;;;;;3.62;3.10;;;16.20;1.40;;;24.53;22.72;96260.86;646221;216;31553;-75
2022/03/01 11:38:37;;;;;;;4.78;2.72;;;17.50;99.90;;;24.07;21.52;96261.44;646262;212;31617;-75
2022/03/01 11:41:22;;;;;;;3.35;2.70;;;16.90;99.90;;;24.55;21.51;96254.64;645922;212;31786;-75
2022/03/01 11:44:06;;;;;;;4.15;3.42;;;17.00;99.90;;;24.85;20.57;96253.02;619026;222;33003;-78
2022/03/01 11:46:49;;;;;;;2.85;2.50;;;16.20;99.90;;;20.21;20.18;96260.95;647406;216;31909;-75
2022/03/01 11:49:36;;;;;;;3.97;2.53;;;12.20;99.90;;;14.32;26.32;96266.21;641942;216;31574;-74
2022/03/01 11:52:24;;;;;;;3.00;2.70;;;11.20;99.90;;;18.64;24.71;96248.75;647335;216;31604;-76
2022/03/01 11:55:07;;;;;;;3.60;2.60;;;15.00;99.90;;;17.10;22.77;96250.50;647131;212;31623;-77
2022/03/01 11:57:51;;;;;;;3.62;2.83;;;12.00;99.90;;;17.44;25.91;96244.84;645921;216;31589;-74
2022/03/01 12:00:33;;;;;;;3.37;3.08;;;14.50;99.90;;;17.33;24.25;96244.56;645733;216;31690;-74
2022/03/01 12:03:20;;;;;;;3.97;2.62;;;14.70;99.90;;;17.10;24.54;96239.43;647706;216;31640;-74
2022/03/01 12:06:02;;;;;;;5.18;2.50;;;14.30;99.90;;;14.87;24.46;96237.97;646335;212;31578;-74
2022/03/01 12:08:44;;;;;;;3.05;2.08;;;12.80;99.90;;;18.67;23.20;96227.36;633941;216;31918;-74
2022/03/01 12:11:32;;;;;;;3.30;2.65;;;15.80;99.90;;;23.70;20.90;96215.73;644576;216;32100;-75
2022/03/01 12:14:16;;;;;;;2.65;2.42;;;18.20;99.90;;;17.11;22.69;96228.47;647341;212;31580;-76
2022/03/01 12:17:04;;;;;;;5.15;2.72;;;13.30;99.90;;;18.40;22.96;96222.46;646887;212;31580;-74
2022/03/01 12:19:47;;;;;;;4.20;2.62;;;15.30;99.90;;;20.86;20.65;96216.99;618946;226;31872;-76